createdAt,value
2023-06-15T00:01:25.364Z,63.40
2023-06-15T00:03:54.906Z,64.10
2023-06-15T00:06:22.457Z,63.60
2023-06-15T00:08:49.604Z,64.00
2023-06-15T00:11:16.669Z,63.80
2023-06-15T00:13:43.733Z,63.80
2023-06-15T00:16:10.849Z,63.60
2023-06-15T00:18:41.764Z,63.70
2023-06-15T00:21:09.578Z,63.90
2023-06-15T00:23:41.002Z,63.60
2023-06-15T00:26:10.320Z,64.30
2023-06-15T00:28:37.385Z,64.30
2023-06-15T00:31:04.565Z,64.10
2023-06-15T00:33:33.961Z,64.30
2023-06-15T00:36:07.032Z,64.40
2023-06-15T00:38:34.132Z,64.30
2023-06-15T00:41:01.156Z,64.70
2023-06-15T00:43:30.540Z,64.50
2023-06-15T00:46:00.053Z,64.60
2023-06-15T00:48:29.777Z,64.20
2023-06-15T00:50:56.939Z,64.60
2023-06-15T00:53:26.517Z,64.60
2023-06-15T00:55:57.653Z,64.50
2023-06-15T00:58:29.142Z,64.80
2023-06-15T01:00:58.492Z,64.80
2023-06-15T01:03:25.626Z,65.20
2023-06-15T01:05:54.110Z,65.00
2023-06-15T01:08:25.247Z,64.90
2023-06-15T01:10:57.601Z,64.90
2023-06-15T01:13:27.506Z,65.10
2023-06-15T01:15:58.719Z,65.20
2023-06-15T01:18:27.098Z,65.20
2023-06-15T01:20:55.040Z,65.30
2023-06-15T01:23:22.785Z,65.40
2023-06-15T01:26:01.431Z,65.80
2023-06-15T01:28:31.525Z,65.70
2023-06-15T01:31:01.299Z,65.60
2023-06-15T01:33:32.478Z,65.80
2023-06-15T01:36:04.117Z,66.00
2023-06-15T01:38:31.577Z,65.80
2023-06-15T01:41:01.741Z,66.00
2023-06-15T01:43:30.467Z,66.00
2023-06-15T01:46:01.002Z,66.00
2023-06-15T01:48:30.471Z,66.40
2023-06-15T01:50:57.660Z,66.20
2023-06-15T01:53:24.851Z,66.00
2023-06-15T01:55:52.337Z,65.90
2023-06-15T01:58:19.407Z,66.00
2023-06-15T02:00:47.653Z,66.30
2023-06-15T02:03:15.164Z,66.10
2023-06-15T02:05:47.970Z,66.20
2023-06-15T02:08:15.226Z,67.00
2023-06-15T02:10:42.557Z,66.60
2023-06-15T02:13:12.498Z,66.80
2023-06-15T02:15:40.229Z,66.80
2023-06-15T02:18:16.209Z,66.90
2023-06-15T02:20:44.479Z,66.80
2023-06-15T02:23:16.228Z,66.90
2023-06-15T02:25:45.877Z,67.00
2023-06-15T02:28:12.999Z,67.00
2023-06-15T02:30:42.401Z,67.20
2023-06-15T02:33:14.327Z,67.20
2023-06-15T02:35:44.902Z,67.20
2023-06-15T02:38:14.321Z,67.30
2023-06-15T02:40:46.993Z,67.30
2023-06-15T02:43:16.935Z,67.60
2023-06-15T02:45:44.096Z,67.20
2023-06-15T02:48:13.675Z,67.40
2023-06-15T02:50:40.895Z,67.30
2023-06-15T02:53:10.105Z,67.30
2023-06-15T02:55:42.410Z,67.40
2023-06-15T02:58:09.456Z,68.10
2023-06-15T03:00:37.721Z,68.10
2023-06-15T03:03:04.981Z,68.20
2023-06-15T03:05:34.110Z,68.80
2023-06-15T03:08:01.211Z,69.30
2023-06-15T03:10:28.269Z,69.40
2023-06-15T03:12:57.329Z,69.20
2023-06-15T03:15:26.500Z,69.20
2023-06-15T03:17:53.560Z,69.10
2023-06-15T03:20:26.129Z,69.00
2023-06-15T03:22:53.245Z,68.70
2023-06-15T03:25:22.976Z,68.50
2023-06-15T03:27:50.192Z,69.10
2023-06-15T03:30:17.284Z,69.20
2023-06-15T03:32:45.533Z,69.00
2023-06-15T03:35:16.128Z,69.20
2023-06-15T03:37:43.750Z,69.60
2023-06-15T03:40:14.043Z,69.30
2023-06-15T03:42:43.825Z,69.50
2023-06-15T03:45:11.288Z,69.30
2023-06-15T03:47:38.559Z,69.10
2023-06-15T03:50:12.952Z,69.20
2023-06-15T03:52:40.032Z,69.30
2023-06-15T03:55:08.141Z,69.40
2023-06-15T03:57:36.126Z,69.90
2023-06-15T04:00:03.288Z,69.20
2023-06-15T04:02:32.950Z,69.50
2023-06-15T04:05:03.989Z,69.30
2023-06-15T04:07:31.112Z,69.20
2023-06-15T04:10:00.559Z,69.50
2023-06-15T04:12:27.620Z,69.20
2023-06-15T04:14:57.670Z,69.30
2023-06-15T04:17:27.162Z,69.70
2023-06-15T04:19:54.243Z,69.20
2023-06-15T04:22:21.335Z,69.40
2023-06-15T04:24:48.404Z,69.20
2023-06-15T04:27:20.168Z,69.40
2023-06-15T04:29:51.319Z,69.20
2023-06-15T04:32:18.722Z,69.50
2023-06-15T04:34:48.543Z,69.20
2023-06-15T04:37:18.348Z,69.40
2023-06-15T04:39:45.505Z,69.50
2023-06-15T04:42:18.993Z,70.00
2023-06-15T04:44:46.769Z,69.70
2023-06-15T04:47:13.838Z,69.80
2023-06-15T04:49:43.475Z,70.00
2023-06-15T04:52:11.251Z,70.10
2023-06-15T04:54:38.314Z,70.00
2023-06-15T04:57:05.967Z,70.00
2023-06-15T04:59:35.709Z,70.00
2023-06-15T05:02:03.084Z,69.90
2023-06-15T05:04:30.209Z,69.80
2023-06-15T05:07:00.330Z,70.00
2023-06-15T05:09:29.831Z,70.10
2023-06-15T05:12:04.165Z,70.10
2023-06-15T05:14:31.283Z,70.10
2023-06-15T05:16:58.411Z,70.20
2023-06-15T05:19:30.119Z,69.60
2023-06-15T05:22:01.618Z,70.10
2023-06-15T05:24:29.133Z,70.30
2023-06-15T05:26:58.836Z,70.60
2023-06-15T05:29:26.075Z,71.00
2023-06-15T05:31:56.575Z,70.50
2023-06-15T05:34:26.230Z,71.30
2023-06-15T05:36:58.378Z,71.00
2023-06-15T05:39:26.760Z,70.70
2023-06-15T05:41:53.781Z,71.20
2023-06-15T05:44:22.986Z,71.10
2023-06-15T05:46:51.648Z,71.40
2023-06-15T05:49:18.808Z,71.00
2023-06-15T05:51:46.152Z,71.40
2023-06-15T05:54:13.271Z,72.40
2023-06-15T05:56:42.622Z,71.20
2023-06-15T05:59:23.262Z,71.50
2023-06-15T06:01:56.869Z,71.60
2023-06-15T06:04:28.816Z,71.80
2023-06-15T06:06:56.098Z,72.00
2023-06-15T06:09:23.855Z,72.10
2023-06-15T06:11:51.108Z,71.90
2023-06-15T06:14:18.164Z,71.80
2023-06-15T06:16:45.448Z,72.20
2023-06-15T06:19:14.694Z,72.10
2023-06-15T06:21:41.761Z,72.40
2023-06-15T06:24:12.034Z,73.00
2023-06-15T06:26:39.121Z,73.10
2023-06-15T06:29:08.649Z,72.60
2023-06-15T06:31:35.828Z,72.70
2023-06-15T06:34:05.514Z,72.80
2023-06-15T06:36:32.721Z,72.80
2023-06-15T06:39:03.004Z,72.90
2023-06-15T06:41:30.655Z,72.90
2023-06-15T06:43:57.829Z,72.80
2023-06-15T06:46:27.243Z,73.20
2023-06-15T06:48:56.831Z,73.90
2023-06-15T06:51:23.995Z,73.20
2023-06-15T06:53:51.320Z,73.00
2023-06-15T06:56:18.381Z,73.30
2023-06-15T06:58:47.662Z,73.30
2023-06-15T07:01:14.734Z,73.50
2023-06-15T07:03:44.293Z,73.50
2023-06-15T07:06:13.974Z,74.00
2023-06-15T07:08:41.324Z,73.30
2023-06-15T07:11:10.661Z,73.70
2023-06-15T07:13:37.781Z,73.90
2023-06-15T07:16:07.623Z,73.60
2023-06-15T07:18:34.679Z,74.40
2023-06-15T07:21:04.158Z,73.40
2023-06-15T07:23:41.124Z,74.00
2023-06-15T07:26:20.938Z,75.10
2023-06-15T07:28:50.076Z,73.60
2023-06-15T07:31:19.304Z,73.80
2023-06-15T07:33:46.427Z,74.80
2023-06-15T07:36:16.236Z,74.00
2023-06-15T07:38:43.363Z,74.00
2023-06-15T07:41:12.892Z,73.90
2023-06-15T07:43:40.009Z,73.80
2023-06-15T07:46:07.060Z,74.30
2023-06-15T07:48:34.159Z,74.10
2023-06-15T07:51:01.145Z,74.30
2023-06-15T07:53:33.398Z,75.10
2023-06-15T07:56:02.690Z,74.60
2023-06-15T07:58:32.200Z,75.30
2023-06-15T08:01:01.965Z,74.40
2023-06-15T08:03:31.426Z,74.30
2023-06-15T08:05:58.573Z,74.60
2023-06-15T08:08:30.646Z,74.50
2023-06-15T08:11:01.615Z,74.60
2023-06-15T08:13:28.823Z,74.70
2023-06-15T08:15:58.669Z,74.60
2023-06-15T08:18:28.265Z,74.70
2023-06-15T08:20:55.408Z,74.60
2023-06-15T08:23:22.853Z,74.40
2023-06-15T08:25:53.457Z,75.00
2023-06-15T08:28:21.971Z,74.50
2023-06-15T08:30:49.149Z,74.50
2023-06-15T08:33:21.838Z,74.40
2023-06-15T08:35:51.350Z,74.40
2023-06-15T08:38:18.474Z,74.40
2023-06-15T08:40:46.709Z,74.70
2023-06-15T08:43:17.991Z,74.40
2023-06-15T08:45:49.495Z,74.50
2023-06-15T08:48:18.194Z,74.50
2023-06-15T08:50:50.275Z,74.50
2023-06-15T08:53:26.005Z,74.50
2023-06-15T08:55:53.645Z,74.40
2023-06-15T08:58:23.150Z,74.30
2023-06-15T09:00:52.154Z,74.00
2023-06-15T09:03:25.739Z,73.70
2023-06-15T09:05:55.065Z,73.70
2023-06-15T09:08:25.999Z,73.60
2023-06-15T09:11:09.634Z,73.20
2023-06-15T09:13:42.232Z,73.30
2023-06-15T09:16:12.200Z,73.40
2023-06-15T09:18:54.074Z,73.20
2023-06-15T09:21:23.468Z,73.10
2023-06-15T09:23:51.049Z,72.20
2023-06-15T09:26:27.477Z,72.60
2023-06-15T09:29:08.741Z,73.00
2023-06-15T09:31:37.537Z,73.00
2023-06-15T09:34:13.028Z,72.90
2023-06-15T09:36:53.073Z,72.90
2023-06-15T09:39:26.181Z,73.00
2023-06-15T09:41:59.819Z,73.10
2023-06-15T09:44:29.605Z,73.20
2023-06-15T09:47:04.625Z,73.30
2023-06-15T09:49:37.504Z,73.30
2023-06-15T09:52:15.102Z,73.40
2023-06-15T09:54:45.318Z,73.50
2023-06-15T09:57:19.907Z,73.50
2023-06-15T09:59:50.279Z,73.50
2023-06-15T10:02:23.415Z,73.20
2023-06-15T10:04:53.323Z,72.90
2023-06-15T10:07:22.356Z,72.90
2023-06-15T10:09:56.227Z,72.90
2023-06-15T10:12:29.206Z,72.60
2023-06-15T10:15:27.595Z,72.40
2023-06-15T10:17:56.557Z,72.60
2023-06-15T10:20:27.642Z,72.60
2023-06-15T10:23:05.204Z,72.30
2023-06-15T10:25:36.695Z,72.20
2023-06-15T10:28:14.618Z,72.10
2023-06-15T10:31:11.919Z,72.40
2023-06-15T10:33:57.615Z,72.10
2023-06-15T10:36:28.507Z,72.00
2023-06-15T10:39:27.956Z,71.90
2023-06-15T10:41:58.555Z,70.80
2023-06-15T10:44:35.536Z,71.60
2023-06-15T10:47:15.434Z,71.90
2023-06-15T10:49:56.963Z,72.00
2023-06-15T10:52:37.368Z,71.90
2023-06-15T10:55:15.860Z,71.10
2023-06-15T10:57:45.362Z,72.30
2023-06-15T11:00:13.215Z,71.90
2023-06-15T11:02:47.998Z,71.20
2023-06-15T11:05:17.258Z,71.40
2023-06-15T11:07:48.173Z,71.10
2023-06-15T11:10:29.798Z,70.80
2023-06-15T11:13:10.913Z,70.70
2023-06-15T11:15:38.728Z,71.00
2023-06-15T11:18:14.202Z,71.30
2023-06-15T11:20:55.738Z,71.50
2023-06-15T11:23:28.232Z,71.80
2023-06-15T11:26:02.252Z,72.10
2023-06-15T11:28:37.619Z,72.30
2023-06-15T11:31:08.374Z,72.20
2023-06-15T11:33:42.868Z,72.30
2023-06-15T11:36:11.789Z,71.80
2023-06-15T11:38:42.511Z,71.70
2023-06-15T11:41:11.868Z,71.40
2023-06-15T11:43:54.178Z,71.00
2023-06-15T11:46:26.432Z,71.30
2023-06-15T11:48:59.935Z,71.50
2023-06-15T11:51:29.325Z,71.60
2023-06-15T11:53:56.804Z,71.70
2023-06-15T11:56:25.289Z,71.30
2023-06-15T11:58:54.818Z,71.60
2023-06-15T12:01:30.005Z,71.80
2023-06-15T12:04:05.366Z,71.90
2023-06-15T12:06:33.749Z,71.60
2023-06-15T12:09:02.226Z,71.70
2023-06-15T12:11:29.511Z,71.20
2023-06-15T12:14:11.218Z,71.20
2023-06-15T12:16:39.695Z,70.90
2023-06-15T12:19:12.329Z,70.80
2023-06-15T12:21:45.154Z,70.40
2023-06-15T12:24:21.767Z,70.60
2023-06-15T12:26:58.807Z,70.70
2023-06-15T12:29:28.785Z,70.60
2023-06-15T12:32:00.175Z,70.60
2023-06-15T12:34:30.510Z,70.80
2023-06-15T12:36:57.813Z,70.40
2023-06-15T12:39:28.971Z,69.70
2023-06-15T12:42:03.497Z,69.90
2023-06-15T12:44:35.883Z,69.60
2023-06-15T12:47:08.747Z,69.50
2023-06-15T12:49:38.147Z,69.90
2023-06-15T12:52:05.786Z,70.20
2023-06-15T12:54:32.918Z,70.10
2023-06-15T12:57:02.174Z,69.90
2023-06-15T12:59:29.762Z,68.70
2023-06-15T13:01:59.239Z,69.00
2023-06-15T13:04:28.119Z,69.10
2023-06-15T13:07:00.171Z,69.10
2023-06-15T13:09:27.302Z,68.90
2023-06-15T13:11:54.460Z,69.10
2023-06-15T13:14:26.163Z,69.00
2023-06-15T13:16:53.352Z,68.70
2023-06-15T13:19:23.218Z,68.80
2023-06-15T13:21:55.579Z,68.50
2023-06-15T13:24:22.813Z,68.30
2023-06-15T13:26:50.076Z,68.40
2023-06-15T13:29:19.520Z,68.50
2023-06-15T13:31:46.775Z,68.50
2023-06-15T13:34:13.946Z,68.60
2023-06-15T13:36:42.373Z,68.80
2023-06-15T13:39:09.787Z,68.70
2023-06-15T13:41:37.151Z,68.90
2023-06-15T13:44:04.495Z,69.00
2023-06-15T13:46:31.829Z,68.60
2023-06-15T13:49:02.961Z,68.70
2023-06-15T13:51:32.472Z,68.60
2023-06-15T13:54:02.485Z,68.50
2023-06-15T13:56:30.079Z,68.30
2023-06-15T13:58:58.464Z,68.50
2023-06-15T14:01:25.941Z,68.10
2023-06-15T14:03:54.765Z,68.40
2023-06-15T14:06:22.512Z,68.40
2023-06-15T14:08:51.911Z,68.50
2023-06-15T14:11:19.463Z,68.70
2023-06-15T14:13:52.477Z,68.80
2023-06-15T14:16:21.312Z,68.90
2023-06-15T14:18:56.832Z,68.80
2023-06-15T14:21:25.295Z,68.40
2023-06-15T14:23:52.736Z,68.10
2023-06-15T14:26:20.178Z,67.40
2023-06-15T14:28:49.031Z,66.50
2023-06-15T14:31:17.383Z,66.30
2023-06-15T14:33:49.130Z,66.40
2023-06-15T14:36:20.942Z,65.90
2023-06-15T14:38:52.794Z,66.20
2023-06-15T14:41:19.904Z,66.20
2023-06-15T14:43:47.193Z,66.60
2023-06-15T14:46:16.605Z,66.80
2023-06-15T14:48:47.577Z,66.50
2023-06-15T14:51:14.918Z,66.70
2023-06-15T14:53:49.229Z,66.30
2023-06-15T14:56:17.305Z,64.70
2023-06-15T14:58:46.639Z,66.50
2023-06-15T15:01:16.362Z,66.20
2023-06-15T15:03:46.297Z,65.40
2023-06-15T15:06:16.069Z,65.70
2023-06-15T15:08:43.348Z,65.70
2023-06-15T15:11:15.423Z,66.20
2023-06-15T15:13:42.612Z,66.40
2023-06-15T15:16:09.921Z,66.30
2023-06-15T15:18:42.737Z,66.40
2023-06-15T15:21:10.345Z,66.40
2023-06-15T15:23:37.637Z,65.30
2023-06-15T15:26:07.482Z,65.90
2023-06-15T15:28:34.643Z,65.70
2023-06-15T15:31:01.900Z,65.30
2023-06-15T15:33:29.176Z,64.70
2023-06-15T15:36:01.084Z,65.10
2023-06-15T15:38:31.349Z,65.10
2023-06-15T15:41:00.986Z,65.10
2023-06-15T15:43:28.208Z,64.30
2023-06-15T15:45:55.590Z,64.60
2023-06-15T15:48:22.858Z,64.80
2023-06-15T15:50:50.093Z,64.90
2023-06-15T15:53:17.294Z,65.40
2023-06-15T15:55:44.466Z,64.40
2023-06-15T15:58:11.815Z,64.40
2023-06-15T16:00:42.024Z,64.50
2023-06-15T16:03:09.426Z,64.70
2023-06-15T16:05:39.312Z,64.80
2023-06-15T16:08:08.534Z,64.40
2023-06-15T16:10:35.840Z,63.10
2023-06-15T16:13:06.051Z,64.20
2023-06-15T16:15:35.536Z,64.00
2023-06-15T16:18:07.236Z,63.50
2023-06-15T16:20:36.657Z,63.10
2023-06-15T16:23:06.546Z,63.20
2023-06-15T16:25:33.739Z,62.80
2023-06-15T16:28:00.997Z,63.50
2023-06-15T16:30:30.705Z,63.70
2023-06-15T16:33:00.266Z,63.50
2023-06-15T16:35:32.969Z,63.20
2023-06-15T16:38:02.491Z,63.10
2023-06-15T16:40:31.834Z,63.70
2023-06-15T16:43:01.108Z,63.30
2023-06-15T16:45:30.976Z,63.40
2023-06-15T16:47:58.228Z,63.50
2023-06-15T16:50:30.510Z,63.80
2023-06-15T16:52:57.709Z,63.90
2023-06-15T16:55:27.232Z,64.00
2023-06-15T16:57:57.499Z,64.20
2023-06-15T17:00:26.931Z,63.50
2023-06-15T17:02:56.353Z,63.20
2023-06-15T17:05:28.254Z,63.30
2023-06-15T17:07:57.538Z,62.90
2023-06-15T17:10:25.427Z,62.90
2023-06-15T17:12:55.239Z,62.90
2023-06-15T17:15:22.332Z,62.90
2023-06-15T17:17:51.778Z,62.80
2023-06-15T17:20:19.118Z,62.90
2023-06-15T17:22:48.719Z,62.80
2023-06-15T17:25:18.723Z,62.50
2023-06-15T17:27:51.769Z,62.60
2023-06-15T17:30:20.165Z,62.60
2023-06-15T17:32:47.583Z,62.50
2023-06-15T17:35:19.701Z,62.40
2023-06-15T17:37:46.810Z,62.20
2023-06-15T17:40:16.626Z,62.50
2023-06-15T17:42:46.404Z,62.50
2023-06-15T17:45:16.561Z,62.60
2023-06-15T17:47:44.698Z,62.70
2023-06-15T17:50:14.439Z,62.80
2023-06-15T17:52:46.462Z,62.80
2023-06-15T17:55:18.637Z,62.90
2023-06-15T17:57:52.734Z,62.90
2023-06-15T18:00:22.486Z,63.00
2023-06-15T18:02:49.776Z,63.10
2023-06-15T18:05:17.202Z,63.00
2023-06-15T18:07:46.891Z,62.80
2023-06-15T18:10:14.153Z,62.90
2023-06-15T18:12:44.364Z,62.70
2023-06-15T18:15:14.022Z,63.00
2023-06-15T18:17:41.694Z,63.10
2023-06-15T18:20:11.900Z,63.30
2023-06-15T18:22:41.446Z,63.50
2023-06-15T18:25:11.813Z,63.70
2023-06-15T18:27:39.621Z,63.70
2023-06-15T18:30:08.450Z,63.70
2023-06-15T18:32:36.407Z,63.80
2023-06-15T18:35:09.852Z,64.00
2023-06-15T18:37:40.334Z,64.10
2023-06-15T18:40:12.693Z,64.20
2023-06-15T18:42:40.996Z,64.40
2023-06-15T18:45:09.542Z,64.30
2023-06-15T18:47:41.852Z,64.30
2023-06-15T18:50:09.536Z,64.30
2023-06-15T18:52:37.345Z,64.20
2023-06-15T18:55:07.481Z,64.30
2023-06-15T18:57:37.633Z,64.30
2023-06-15T19:00:11.292Z,64.40
2023-06-15T19:02:45.778Z,64.40
2023-06-15T19:05:15.615Z,64.40
2023-06-15T19:07:45.029Z,64.40
2023-06-15T19:10:13.345Z,64.40
2023-06-15T19:12:46.027Z,64.40
2023-06-15T19:15:13.302Z,64.40
2023-06-15T19:17:44.865Z,64.40
2023-06-15T19:20:13.032Z,64.30
2023-06-15T19:22:40.838Z,64.20
2023-06-15T19:25:08.306Z,64.20
2023-06-15T19:27:35.440Z,64.10
2023-06-15T19:30:05.023Z,64.20
2023-06-15T19:32:34.781Z,64.20
2023-06-15T19:35:04.760Z,64.10
2023-06-15T19:37:31.926Z,64.10
2023-06-15T19:40:01.248Z,64.00
2023-06-15T19:42:31.086Z,64.00
2023-06-15T19:44:58.196Z,64.10
2023-06-15T19:47:27.961Z,64.10
2023-06-15T19:49:57.565Z,64.30
2023-06-15T19:52:24.794Z,64.10
2023-06-15T19:54:54.532Z,64.20
2023-06-15T19:57:21.711Z,64.30
2023-06-15T19:59:48.876Z,64.30
2023-06-15T20:02:20.870Z,64.40
2023-06-15T20:04:50.554Z,64.60
2023-06-15T20:07:19.843Z,64.70
2023-06-15T20:09:47.006Z,64.60
2023-06-15T20:12:19.131Z,64.60
2023-06-15T20:14:48.456Z,64.80
2023-06-15T20:17:19.978Z,64.80
2023-06-15T20:19:47.198Z,64.60
2023-06-15T20:22:19.168Z,64.50
2023-06-15T20:24:52.311Z,64.90
2023-06-15T20:27:19.614Z,64.60
2023-06-15T20:29:49.238Z,64.50
2023-06-15T20:32:21.805Z,64.60
2023-06-15T20:34:48.932Z,64.70
2023-06-15T20:37:18.637Z,64.60
2023-06-15T20:39:48.430Z,64.80
2023-06-15T20:42:16.150Z,64.80
2023-06-15T20:44:50.162Z,64.80
2023-06-15T20:47:22.449Z,64.70
2023-06-15T20:49:52.366Z,64.70
2023-06-15T20:52:22.950Z,64.80
2023-06-15T20:54:54.752Z,64.90
2023-06-15T20:57:24.116Z,64.80
2023-06-15T20:59:51.275Z,64.80
2023-06-15T21:02:20.734Z,64.80
2023-06-15T21:04:53.609Z,64.80
2023-06-15T21:07:20.982Z,64.80
2023-06-15T21:09:50.612Z,65.00
2023-06-15T21:12:19.950Z,64.90
2023-06-15T21:14:48.249Z,65.60
2023-06-15T21:17:15.600Z,64.80
2023-06-15T21:19:42.738Z,64.90
2023-06-15T21:22:09.912Z,64.80
2023-06-15T21:24:39.631Z,64.90
2023-06-15T21:27:09.358Z,64.90
2023-06-15T21:29:38.967Z,64.80
2023-06-15T21:32:09.412Z,64.90
2023-06-15T21:34:38.617Z,64.90
2023-06-15T21:37:08.336Z,65.00
2023-06-15T21:39:35.603Z,65.30
2023-06-15T21:42:05.380Z,65.10
2023-06-15T21:44:35.220Z,65.20
2023-06-15T21:47:02.348Z,65.30
2023-06-15T21:49:29.648Z,66.20
2023-06-15T21:52:04.449Z,65.60
2023-06-15T21:54:31.582Z,65.60
2023-06-15T21:57:04.121Z,65.80
2023-06-15T21:59:31.375Z,65.60
2023-06-15T22:01:59.032Z,65.70
2023-06-15T22:04:29.188Z,65.60
2023-06-15T22:06:56.449Z,65.60
2023-06-15T22:09:26.613Z,65.60
2023-06-15T22:11:56.615Z,65.60
2023-06-15T22:14:26.318Z,65.60
2023-06-15T22:16:56.932Z,65.90
2023-06-15T22:19:26.680Z,65.80
2023-06-15T22:21:53.998Z,65.90
2023-06-15T22:24:26.061Z,65.80
2023-06-15T22:26:55.878Z,65.90
2023-06-15T22:29:23.078Z,66.10
2023-06-15T22:31:50.802Z,65.90
2023-06-15T22:34:18.205Z,65.90
2023-06-15T22:36:53.485Z,66.00
2023-06-15T22:39:22.889Z,66.00
2023-06-15T22:41:52.114Z,66.20
2023-06-15T22:44:21.925Z,66.40
2023-06-15T22:46:51.355Z,66.50
2023-06-15T22:49:26.171Z,66.50
2023-06-15T22:51:58.580Z,66.80
2023-06-15T22:54:26.452Z,66.40
2023-06-15T22:56:55.947Z,66.70
2023-06-15T22:59:23.071Z,66.70
2023-06-15T23:01:50.277Z,66.70
2023-06-15T23:04:19.802Z,66.50
2023-06-15T23:06:48.353Z,66.70
2023-06-15T23:09:15.575Z,66.60
2023-06-15T23:11:42.745Z,66.60
2023-06-15T23:14:22.113Z,66.90
2023-06-15T23:16:54.098Z,66.90
2023-06-15T23:19:25.157Z,67.10
2023-06-15T23:21:56.713Z,66.80
2023-06-15T23:24:29.167Z,66.90
2023-06-15T23:26:58.797Z,67.00
2023-06-15T23:29:30.600Z,67.00
2023-06-15T23:31:57.750Z,67.00
2023-06-15T23:34:34.154Z,67.00
2023-06-15T23:37:06.248Z,67.20
2023-06-15T23:39:33.974Z,67.20
2023-06-15T23:42:06.870Z,67.20
2023-06-15T23:44:38.796Z,67.40
2023-06-15T23:47:06.089Z,67.30
2023-06-15T23:49:38.006Z,67.50
2023-06-15T23:52:10.321Z,67.70
2023-06-15T23:54:37.479Z,67.90
2023-06-15T23:57:05.038Z,67.50
2023-06-15T23:59:32.197Z,67.60
